Time;durP1;ratioP1;P1;durP2;ratioP2;P2;SDS_P1;SDS_P2;PMS_P1;PMS_P2;Temp;Humidity;BMP_temperature;BMP_pressure;BME280_temperature;BME280_humidity;BME280_pressure;Samples;Min_cycle;Max_cycle;Signal;HPM_P1;HPM_P2
2023/03/22 00:02:08;;;;;;;7.65;1.33;;;;;;;19.38;42.59;100919.19;16120224;19;129477;-48
2023/03/22 00:07:30;;;;;;;3.20;1.25;;;;;;;19.36;42.32;100904.72;16121185;19;131132;-42
2023/03/22 00:12:52;;;;;;;7.07;1.40;;;;;;;19.36;42.31;100901.13;16120711;19;130859;-42
2023/03/22 00:18:15;;;;;;;4.55;1.40;;;;;;;19.35;42.53;100889.19;16121139;19;129886;-43
2023/03/22 00:23:37;;;;;;;3.13;1.20;;;;;;;19.31;42.18;100881.63;16115439;19;130511;-42
2023/03/22 00:28:59;;;;;;;3.67;1.30;;;;;;;19.29;42.12;100870.78;16118490;19;131112;-44
2023/03/22 00:34:21;;;;;;;4.43;1.60;;;;;;;19.27;42.30;100870.19;16114464;19;132080;-50
2023/03/22 00:39:43;;;;;;;3.75;1.20;;;;;;;19.24;42.25;100865.13;16115941;19;131044;-42
2023/03/22 00:45:07;;;;;;;4.00;1.20;;;;;;;19.21;42.34;100847.06;16121241;19;130033;-43
2023/03/22 00:50:29;;;;;;;5.35;1.45;;;;;;;19.19;41.90;100846.44;16116623;19;129426;-48
2023/03/22 00:55:51;;;;;;;4.28;1.70;;;;;;;19.19;42.10;100845.63;16117171;19;131474;-44
2023/03/22 01:01:13;;;;;;;3.63;1.23;;;;;;;19.17;42.15;100831.16;16115482;19;129420;-42
2023/03/22 01:06:35;;;;;;;4.53;1.38;;;;;;;19.16;41.95;100823.94;16112127;19;130459;-42
2023/03/22 01:11:57;;;;;;;2.17;1.00;;;;;;;19.13;42.20;100816.97;16122550;19;129176;-45
2023/03/22 01:17:19;;;;;;;4.32;1.05;;;;;;;19.12;41.72;100800.56;16118576;19;130917;-44
2023/03/22 01:22:41;;;;;;;3.72;1.13;;;;;;;19.11;41.67;100787.78;16114049;19;129959;-45
2023/03/22 01:28:05;;;;;;;3.17;1.40;;;;;;;19.08;41.82;100767.78;16110912;19;129935;-45
2023/03/22 01:33:27;;;;;;;2.45;1.45;;;;;;;19.06;41.58;100763.59;16116840;19;129702;-43
2023/03/22 01:38:49;;;;;;;2.92;1.23;;;;;;;19.05;41.68;100760.00;16109949;19;129804;-43
2023/03/22 01:44:11;;;;;;;4.20;1.30;;;;;;;19.04;41.64;100751.91;16110130;19;130897;-43
2023/03/22 01:49:34;;;;;;;2.38;0.98;;;;;;;19.02;41.43;100752.19;16115036;19;130970;-42
2023/03/22 01:54:56;;;;;;;3.10;1.30;;;;;;;19.02;41.37;100749.41;16115071;19;131101;-43
2023/03/22 02:00:19;;;;;;;3.67;1.35;;;;;;;19.01;41.82;100749.69;16114910;19;129721;-44
2023/03/22 02:05:42;;;;;;;6.07;1.40;;;;;;;18.99;41.31;100741.59;16109911;19;129293;-42
2023/03/22 02:11:04;;;;;;;5.25;1.40;;;;;;;18.97;41.33;100729.91;16111659;19;129828;-42
2023/03/22 02:16:46;;;;;;;2.45;1.08;;;;;;;18.97;41.37;100741.00;16109489;19;131069;-43
2023/03/22 02:22:26;;;;;;;3.40;1.30;;;;;;;18.97;41.46;100727.13;16108946;19;130257;-45
2023/03/22 02:27:48;;;;;;;3.22;1.30;;;;;;;18.94;41.60;100721.28;16109600;19;129747;-42
2023/03/22 02:33:25;;;;;;;2.10;1.17;;;;;;;18.94;41.34;100716.59;16105866;19;130305;-49
2023/03/22 02:39:11;;;;;;;4.95;1.17;;;;;;;18.91;41.57;100714.31;16108320;19;130151;-43
2023/03/22 02:44:40;;;;;;;2.97;1.10;;;;;;;18.89;41.59;100708.19;16107952;19;131643;-43
2023/03/22 02:50:19;;;;;;;1.73;1.00;;;;;;;18.88;41.24;100695.41;16113664;19;130374;-42
2023/03/22 02:55:45;;;;;;;3.25;0.98;;;;;;;18.87;41.29;100688.19;16110575;19;131018;-42
2023/03/22 03:01:08;;;;;;;;;;;;;;;18.81;41.10;100678.94;16120327;19;130488;-42
2023/03/22 03:06:34;;;;;;;2.92;1.40;;;;;;;18.83;41.23;100665.69;16118321;19;131111;-42
2023/03/22 03:11:56;;;;;;;2.85;1.17;;;;;;;18.81;41.46;100667.88;16117988;19;129825;-43
2023/03/22 03:17:42;;;;;;;2.10;1.00;;;;;;;18.81;41.29;100656.78;16116766;19;131987;-42
2023/03/22 03:23:32;;;;;;;1.85;1.08;;;;;;;18.81;41.31;100672.59;16112938;19;131190;-43
2023/03/22 03:29:12;;;;;;;2.85;1.40;;;;;;;18.78;41.32;100660.06;16120043;19;130486;-42
2023/03/22 03:34:44;;;;;;;5.13;1.00;;;;;;;18.76;40.98;100671.41;16111365;19;129946;-41
2023/03/22 03:40:11;;;;;;;3.13;1.08;;;;;;;18.76;40.95;100676.94;16115372;19;129883;-42
2023/03/22 03:45:35;;;;;;;1.15;0.70;;;;;;;18.74;41.04;100668.03;16114626;19;131566;-44
2023/03/22 03:50:59;;;;;;;3.08;1.10;;;;;;;18.73;41.08;100666.34;16116551;19;129918;-42
2023/03/22 03:56:21;;;;;;;2.65;1.05;;;;;;;18.72;41.00;100659.13;16114172;19;129732;-42
2023/03/22 04:01:50;;;;;;;4.07;1.08;;;;;;;18.72;41.08;100666.63;16111822;19;130332;-45
2023/03/22 04:07:12;;;;;;;2.13;1.10;;;;;;;18.70;40.95;100661.34;16112555;19;129608;-41
2023/03/22 04:12:34;;;;;;;3.38;1.10;;;;;;;18.71;41.18;100667.72;16118188;19;131444;-42
2023/03/22 04:17:56;;;;;;;2.67;1.27;;;;;;;18.68;41.22;100663.53;16124158;19;130643;-44
2023/03/22 04:23:21;;;;;;;5.50;1.13;;;;;;;18.68;40.74;100663.53;16117550;19;129748;-43
2023/03/22 04:28:43;;;;;;;2.25;0.82;;;;;;;18.67;40.96;100656.31;16117015;19;129549;-46
2023/03/22 04:34:05;;;;;;;1.30;0.90;;;;;;;18.66;40.92;100660.16;16118075;19;130934;-42
2023/03/22 04:39:27;;;;;;;3.05;1.00;;;;;;;18.64;41.08;100659.56;16114351;19;130078;-42
2023/03/22 04:44:49;;;;;;;2.80;0.73;;;;;;;18.64;41.06;100656.81;16118192;19;132807;-44
2023/03/22 04:50:10;;;;;;;4.68;0.90;;;;;;;18.62;41.08;100650.66;16117783;19;129802;-41
2023/03/22 04:55:33;;;;;;;2.72;1.00;;;;;;;18.61;40.91;100647.06;16117264;19;132506;-42
2023/03/22 05:00:54;;;;;;;3.63;1.00;;;;;;;18.60;40.64;100647.31;16116747;19;129202;-44
2023/03/22 05:06:16;;;;;;;2.45;0.90;;;;;;;18.58;40.76;100646.75;16117312;19;130325;-44
2023/03/22 05:11:39;;;;;;;3.90;0.98;;;;;;;18.58;41.04;100658.66;16114950;19;129619;-43
2023/03/22 05:17:02;;;;;;;1.95;0.70;;;;;;;18.58;40.90;100657.81;16117590;19;129572;-46
2023/03/22 05:22:24;;;;;;;3.00;0.80;;;;;;;18.56;40.76;100651.69;16116457;19;129402;-42
2023/03/22 05:27:49;;;;;;;2.63;1.15;;;;;;;18.54;40.99;100662.19;16116024;19;131080;-45
2023/03/22 05:33:11;;;;;;;2.73;1.17;;;;;;;18.54;40.70;100645.56;16115831;19;131037;-39
2023/03/22 05:38:33;;;;;;;1.70;0.80;;;;;;;18.54;40.91;100651.09;16117534;19;130787;-40
2023/03/22 05:43:54;;;;;;;4.32;1.00;;;;;;;18.53;40.55;100660.50;16113833;19;130866;-40
2023/03/22 05:49:16;;;;;;;3.10;1.10;;;;;;;18.52;40.79;100664.38;16115019;19;130113;-44
2023/03/22 05:54:38;;;;;;;1.98;1.05;;;;;;;18.51;40.52;100663.53;16112852;19;130007;-42
2023/03/22 06:00:00;;;;;;;5.10;0.98;;;;;;;18.51;40.49;100668.22;16112353;19;130910;-44
2023/03/22 06:05:22;;;;;;;2.30;1.00;;;;;;;18.51;40.62;100662.69;16108351;19;131388;-45
2023/03/22 06:10:44;;;;;;;2.63;1.10;;;;;;;18.65;40.26;100663.16;16110144;19;130160;-44
2023/03/22 06:16:06;;;;;;;12.60;1.80;;;;;;;18.84;39.87;100667.38;16111790;19;129477;-43
2023/03/22 06:21:28;;;;;;;15.68;2.15;;;;;;;18.96;39.64;100647.84;16110799;19;129898;-45
2023/03/22 06:26:50;;;;;;;21.95;2.30;;;;;;;19.06;39.13;100655.47;16111867;19;131707;-43
2023/03/22 06:32:12;;;;;;;13.73;1.88;;;;;;;19.11;38.32;100657.47;16107383;19;130777;-42
2023/03/22 06:37:33;;;;;;;13.60;1.70;;;;;;;19.12;38.34;100665.56;16111293;19;133164;-43
2023/03/22 06:42:55;;;;;;;9.82;1.40;;;;;;;19.12;37.88;100661.94;16109709;19;131115;-42
2023/03/22 06:48:17;;;;;;;13.55;1.80;;;;;;;19.08;38.26;100661.59;16111857;19;131378;-41
2023/03/22 06:53:39;;;;;;;8.65;1.92;;;;;;;19.06;38.06;100663.78;16112197;19;131933;-42
2023/03/22 06:59:01;;;;;;;9.90;1.90;;;;;;;19.03;38.27;100667.91;16107627;19;130969;-41
2023/03/22 07:04:23;;;;;;;21.48;2.40;;;;;;;19.02;38.36;100663.47;16113929;19;131199;-43
2023/03/22 07:09:46;;;;;;;9.43;2.13;;;;;;;19.01;37.98;100659.00;16103480;19;129386;-42
2023/03/22 07:15:08;;;;;;;7.50;1.80;;;;;;;19.04;38.17;100661.28;16111319;19;129534;-42
2023/03/22 07:20:31;;;;;;;16.13;2.83;;;;;;;19.07;38.34;100659.91;16112124;19;129509;-44
2023/03/22 07:25:54;;;;;;;15.05;1.98;;;;;;;19.11;38.22;100666.66;16111310;19;131885;-41
2023/03/22 07:31:16;;;;;;;11.30;2.03;;;;;;;19.15;38.22;100655.88;16107573;19;130377;-44
2023/03/22 07:36:38;;;;;;;14.60;2.15;;;;;;;19.17;38.10;100656.47;16110927;19;130059;-42
2023/03/22 07:42:00;;;;;;;12.98;1.67;;;;;;;19.25;37.83;100655.22;16112524;19;129331;-43
2023/03/22 07:47:22;;;;;;;6.03;1.48;;;;;;;19.34;38.08;100661.97;16123914;19;131008;-44
2023/03/22 07:53:02;;;;;;;7.35;1.70;;;;;;;19.47;37.63;100663.50;16123472;19;129027;-43
2023/03/22 07:58:24;;;;;;;8.52;1.65;;;;;;;19.56;37.26;100664.75;16125546;19;129657;-45
2023/03/22 08:03:46;;;;;;;8.20;1.35;;;;;;;19.66;37.39;100670.44;16123734;19;130991;-43
2023/03/22 08:09:08;;;;;;;7.80;1.48;;;;;;;19.75;36.99;100679.13;16107111;19;133140;-42
2023/03/22 08:14:29;;;;;;;6.13;1.27;;;;;;;19.87;36.86;100676.19;16118162;19;130287;-44
2023/03/22 08:19:57;;;;;;;5.65;1.35;;;;;;;20.33;36.20;100666.66;16124111;19;131388;-42
2023/03/22 08:25:19;;;;;;;7.80;1.83;;;;;;;20.29;36.23;100646.91;16126789;19;129757;-45
2023/03/22 08:30:45;;;;;;;6.03;1.48;;;;;;;20.23;36.29;100664.66;16119954;19;129833;-43
2023/03/22 08:36:13;;;;;;;6.85;1.23;;;;;;;20.18;36.61;100668.22;16123708;19;130145;-42
2023/03/22 08:41:35;;;;;;;4.82;1.40;;;;;;;20.18;36.26;100661.81;16124865;19;129551;-42
2023/03/22 08:46:57;;;;;;;7.65;1.58;;;;;;;20.18;36.35;100661.81;16120593;19;130582;-42
2023/03/22 08:52:19;;;;;;;5.65;1.20;;;;;;;20.18;36.23;100648.78;16122170;19;130706;-41
2023/03/22 08:57:40;;;;;;;5.70;1.30;;;;;;;20.19;36.66;100658.75;16118932;19;130408;-43
2023/03/22 09:03:02;;;;;;;9.05;1.27;;;;;;;20.16;36.35;100641.78;16120251;19;132003;-43
2023/03/22 09:08:24;;;;;;;8.48;1.27;;;;;;;20.09;36.10;100642.88;16116951;19;129332;-44
2023/03/22 09:13:47;;;;;;;9.52;1.15;;;;;;;20.03;36.23;100640.31;16120066;19;130701;-43
2023/03/22 09:19:09;;;;;;;4.50;1.05;;;;;;;19.95;36.25;100636.84;16117214;19;129458;-43
2023/03/22 09:24:31;;;;;;;3.97;1.30;;;;;;;19.89;36.25;100637.91;16119404;19;129117;-44
2023/03/22 09:29:54;;;;;;;7.20;1.35;;;;;;;19.84;36.16;100621.19;16121495;19;134027;-42
2023/03/22 09:35:16;;;;;;;5.07;1.55;;;;;;;19.79;36.17;100632.25;16119400;19;129692;-42
2023/03/22 09:41:16;;;;;;;8.40;1.50;;;;;;;19.73;36.09;100636.06;16118013;19;130113;-47
2023/03/22 09:46:43;;;;;;;11.07;1.48;;;;;;;19.66;36.42;100636.28;16116473;19;131407;-41
2023/03/22 09:52:14;;;;;;;4.68;1.23;;;;;;;19.63;36.42;100639.59;16114635;19;131228;-44
2023/03/22 09:57:36;;;;;;;5.45;1.40;;;;;;;19.57;36.18;100640.63;16111835;19;129940;-44
2023/03/22 10:03:11;;;;;;;5.57;1.45;;;;;;;19.56;36.42;100650.03;16118363;19;129692;-44
2023/03/22 10:08:53;;;;;;;8.85;1.45;;;;;;;19.52;36.50;100638.63;16115117;19;129679;-48
2023/03/22 10:14:39;;;;;;;9.23;1.50;;;;;;;19.49;36.41;100636.34;16117664;19;129663;-44
2023/03/22 10:20:08;;;;;;;;;;;;;;;19.48;36.27;100634.69;16114668;19;129349;-43
2023/03/22 10:25:35;;;;;;;8.65;1.40;;;;;;;19.58;35.99;100643.13;16114416;19;129997;-45
2023/03/22 10:30:57;;;;;;;6.30;1.30;;;;;;;19.75;36.13;100648.59;16112279;19;130739;-43
2023/03/22 10:36:25;;;;;;;4.60;1.38;;;;;;;19.96;35.67;100626.59;16115019;19;130989;-43
2023/03/22 10:41:48;;;;;;;4.28;1.23;;;;;;;20.12;35.68;100635.94;16113035;19;130952;-42
2023/03/22 10:47:10;;;;;;;7.28;1.90;;;;;;;20.24;35.20;100633.81;16109780;19;129912;-43
2023/03/22 10:52:46;;;;;;;6.20;1.50;;;;;;;20.36;35.26;100635.59;16113110;19;129538;-43
2023/03/22 10:58:19;;;;;;;8.82;1.48;;;;;;;20.44;35.37;100623.97;16114186;19;130392;-42
2023/03/22 11:03:49;;;;;;;7.20;1.10;;;;;;;20.47;35.94;100615.09;16113230;19;129692;-44
2023/03/22 11:09:14;;;;;;;8.02;1.40;;;;;;;20.44;36.05;100621.19;16113552;19;129132;-42
2023/03/22 11:14:41;;;;;;;;;;;;;;;20.35;35.77;100620.00;16111898;19;129961;-45
2023/03/22 11:20:08;;;;;;;;;;;;;;;20.25;36.38;100616.06;16126913;19;131336;-42
2023/03/22 11:25:34;;;;;;;11.05;1.50;;;;;;;20.20;36.27;100604.88;16122702;19;131802;-41
2023/03/22 11:31:08;;;;;;;6.28;1.55;;;;;;;20.12;36.42;100619.28;16124169;19;132412;-42
2023/03/22 11:36:40;;;;;;;6.07;1.13;;;;;;;20.00;36.53;100624.97;16124762;19;129603;-41
2023/03/22 11:42:05;;;;;;;7.22;1.50;;;;;;;19.91;36.36;100604.31;16128637;19;129671;-42
2023/03/22 11:47:33;;;;;;;5.90;1.38;;;;;;;19.84;36.63;100608.16;16123043;19;132284;-40
2023/03/22 11:52:56;;;;;;;7.00;1.20;;;;;;;19.81;36.82;100599.53;16124727;19;129787;-41
2023/03/22 11:58:38;;;;;;;6.70;1.23;;;;;;;19.82;36.94;100590.94;16123116;19;129945;-42
2023/03/22 12:04:04;;;;;;;9.15;1.27;;;;;;;19.86;36.91;100605.13;16126204;19;130612;-41
2023/03/22 12:09:43;;;;;;;5.78;1.10;;;;;;;19.92;36.98;100598.53;16122247;19;129758;-42
2023/03/22 12:15:14;;;;;;;4.45;1.00;;;;;;;19.98;36.70;100596.63;16122577;19;130203;-40
2023/03/22 12:20:53;;;;;;;6.53;1.40;;;;;;;20.03;36.75;100582.00;16120728;19;129468;-40
2023/03/22 12:26:19;;;;;;;6.55;1.63;;;;;;;20.05;37.10;100583.38;16121936;19;129354;-40
2023/03/22 12:31:56;;;;;;;3.78;0.93;;;;;;;20.06;36.87;100589.81;16121689;19;130097;-43
2023/03/22 12:37:25;;;;;;;5.63;1.25;;;;;;;20.06;36.71;100604.50;16120697;19;130283;-43
2023/03/22 12:42:56;;;;;;;8.05;1.08;;;;;;;20.05;36.82;100590.91;16121728;19;129559;-41
2023/03/22 12:48:27;;;;;;;9.52;1.20;;;;;;;20.04;37.10;100594.78;16114989;19;130093;-43
2023/03/22 12:53:55;;;;;;;6.03;1.30;;;;;;;19.99;37.39;100593.63;16121688;19;129662;-42
2023/03/22 12:59:25;;;;;;;5.72;1.10;;;;;;;19.96;37.18;100577.44;16121634;19;129578;-44
2023/03/22 13:05:03;;;;;;;5.47;1.20;;;;;;;19.93;37.62;100569.66;16114768;19;131192;-41
2023/03/22 13:10:28;;;;;;;8.90;0.88;;;;;;;19.88;37.83;100564.06;16116208;19;129418;-42
2023/03/22 13:15:56;;;;;;;5.70;1.03;;;;;;;19.87;37.75;100562.38;16120220;19;129372;-42
2023/03/22 13:21:25;;;;;;;6.55;1.20;;;;;;;19.87;37.96;100562.38;16120686;19;129447;-40
2023/03/22 13:26:53;;;;;;;5.50;1.50;;;;;;;19.87;37.74;100564.34;16118149;19;129610;-42
2023/03/22 13:32:32;;;;;;;4.70;1.10;;;;;;;19.86;37.68;100565.44;16110513;19;129664;-41
2023/03/22 13:38:01;;;;;;;8.60;1.20;;;;;;;19.84;37.54;100572.06;16116257;19;134494;-40
2023/03/22 13:43:28;;;;;;;11.98;1.45;;;;;;;19.87;37.92;100561.56;16111497;19;130234;-42
2023/03/22 13:48:53;;;;;;;4.30;1.20;;;;;;;19.87;37.74;100554.06;16118137;19;130164;-41
2023/03/22 13:54:25;;;;;;;8.68;1.45;;;;;;;19.88;37.69;100552.94;16119667;19;130939;-40
2023/03/22 14:00:05;;;;;;;6.80;1.27;;;;;;;19.91;37.93;100552.44;16119930;19;129703;-40
2023/03/22 14:05:36;;;;;;;8.82;1.20;;;;;;;19.90;37.90;100550.75;16115860;19;130578;-41
2023/03/22 14:11:37;;;;;;;5.78;1.05;;;;;;;19.94;37.78;100549.09;16114595;19;129385;-42
2023/03/22 14:17:10;;;;;;;11.13;1.80;;;;;;;19.91;38.03;100544.09;16117906;19;129839;-41
2023/03/22 14:22:37;;;;;;;4.68;1.05;;;;;;;19.90;38.02;100549.91;16113739;19;131807;-40
2023/03/22 14:28:00;;;;;;;9.73;1.63;;;;;;;19.86;37.83;100535.72;16116567;19;130403;-40
2023/03/22 14:33:22;;;;;;;5.95;1.17;;;;;;;19.85;37.75;100525.72;16110837;19;129549;-41
2023/03/22 14:38:45;;;;;;;3.83;1.10;;;;;;;19.83;37.73;100520.44;16113268;19;131113;-40
2023/03/22 14:44:11;;;;;;;6.45;1.10;;;;;;;19.81;37.87;100519.84;16115310;19;129072;-42
2023/03/22 14:49:38;;;;;;;3.72;0.98;;;;;;;19.81;38.07;100519.03;16113332;19;129376;-46
2023/03/22 14:55:03;;;;;;;4.82;1.15;;;;;;;19.76;38.41;100516.19;16125537;19;130469;-43
2023/03/22 15:00:27;;;;;;;4.60;1.10;;;;;;;19.71;38.51;100516.16;16130233;19;129530;-42
2023/03/22 15:05:50;;;;;;;4.63;1.35;;;;;;;19.67;38.16;100510.28;16129808;19;129479;-42
2023/03/22 15:11:16;;;;;;;4.13;1.10;;;;;;;19.64;38.68;100500.56;16129114;19;132688;-44
2023/03/22 15:16:40;;;;;;;6.00;1.05;;;;;;;19.61;38.48;100503.84;16129258;19;129877;-41
2023/03/22 15:22:20;;;;;;;12.32;1.33;;;;;;;19.60;38.64;100506.91;16126797;19;129275;-41
2023/03/22 15:27:44;;;;;;;8.63;1.40;;;;;;;19.54;38.58;100494.94;16127721;19;129309;-43
2023/03/22 15:33:12;;;;;;;5.43;1.30;;;;;;;19.50;38.79;100502.94;16126876;19;129337;-41
2023/03/22 15:38:39;;;;;;;12.13;1.35;;;;;;;19.47;38.91;100497.91;16121589;19;129595;-41
2023/03/22 15:44:21;;;;;;;6.25;1.40;;;;;;;19.44;38.67;100509.53;16124971;19;129925;-40
2023/03/22 15:49:54;;;;;;;9.13;1.52;;;;;;;19.40;38.74;100508.38;16121128;19;130882;-41
2023/03/22 15:55:18;;;;;;;2.30;1.02;;;;;;;19.44;38.57;100509.53;16122827;19;131369;-40
2023/03/22 16:00:42;;;;;;;5.53;1.10;;;;;;;19.54;38.54;100503.25;16117405;19;129868;-40
2023/03/22 16:06:08;;;;;;;6.35;1.40;;;;;;;19.73;38.25;100511.16;16120233;19;129874;-42
2023/03/22 16:11:30;;;;;;;7.47;1.10;;;;;;;19.90;38.39;100506.34;16122232;19;129606;-41
2023/03/22 16:16:52;;;;;;;7.07;1.20;;;;;;;20.08;38.34;100495.94;16124499;19;129264;-41
2023/03/22 16:22:16;;;;;;;4.85;1.10;;;;;;;20.20;38.22;100499.34;16120721;19;130034;-40
2023/03/22 16:27:37;;;;;;;3.42;0.90;;;;;;;20.27;37.84;100488.84;16119235;19;129577;-40
2023/03/22 16:33:02;;;;;;;3.25;0.85;;;;;;;20.35;38.00;100483.88;16118938;19;131181;-40
2023/03/22 16:38:27;;;;;;;2.20;1.00;;;;;;;20.37;37.99;100481.69;16119466;19;129650;-39
2023/03/22 16:43:49;;;;;;;3.70;1.23;;;;;;;20.36;38.07;100471.69;16116866;19;130826;-40
2023/03/22 16:49:11;;;;;;;4.82;1.10;;;;;;;20.33;38.38;100464.72;16112869;19;130134;-40
2023/03/22 16:54:33;;;;;;;2.25;0.82;;;;;;;20.26;38.56;100459.41;16114368;19;131182;-42
2023/03/22 17:00:01;;;;;;;10.43;1.75;;;;;;;20.20;38.56;100454.91;16112458;19;131244;-41
2023/03/22 17:05:24;;;;;;;7.60;1.00;;;;;;;20.13;38.87;100451.53;16113852;19;131002;-40
2023/03/22 17:10:46;;;;;;;6.20;1.00;;;;;;;20.08;38.90;100445.94;16113925;19;129625;-40
2023/03/22 17:16:09;;;;;;;10.48;1.20;;;;;;;20.03;39.58;100451.47;16114435;19;129502;-41
2023/03/22 17:21:31;;;;;;;3.63;1.25;;;;;;;19.97;39.71;100445.84;16113424;19;131969;-40
2023/03/22 17:26:54;;;;;;;7.72;1.05;;;;;;;19.90;39.60;100459.13;16111085;19;130544;-44
2023/03/22 17:32:16;;;;;;;6.13;0.90;;;;;;;19.86;39.56;100451.63;16110482;19;131270;-41
2023/03/22 17:37:58;;;;;;;11.98;1.40;;;;;;;19.82;39.69;100459.63;16115392;19;129432;-40
2023/03/22 17:43:20;;;;;;;5.57;1.33;;;;;;;19.78;39.61;100455.72;16109917;19;130882;-40
2023/03/22 17:48:42;;;;;;;6.88;1.13;;;;;;;19.73;40.15;100450.97;16112143;19;131273;-43
2023/03/22 17:54:04;;;;;;;6.25;1.30;;;;;;;19.70;40.11;100454.25;16116808;19;130016;-41
2023/03/22 17:59:48;;;;;;;10.85;1.10;;;;;;;19.72;40.53;100454.84;16108849;19;129717;-41
2023/03/22 18:05:14;;;;;;;11.00;1.20;;;;;;;19.75;40.37;100450.69;16108065;19;131263;-41
2023/03/22 18:10:48;;;;;;;9.88;1.42;;;;;;;19.84;40.13;100446.31;16106023;19;130405;-40
2023/03/22 18:16:10;;;;;;;11.90;1.50;;;;;;;20.14;40.05;100442.13;16106266;19;132243;-40
2023/03/22 18:21:33;;;;;;;7.43;1.08;;;;;;;20.47;39.82;100448.38;16108429;19;129582;-39
2023/03/22 18:27:01;;;;;;;12.68;1.40;;;;;;;20.83;38.90;100428.28;16111478;19;129704;-39
2023/03/22 18:32:31;;;;;;;9.70;1.48;;;;;;;21.11;38.76;100429.72;16109980;19;130792;-40
2023/03/22 18:38:13;;;;;;;9.45;1.35;;;;;;;21.40;38.18;100432.00;16112906;19;131026;-41
2023/03/22 18:43:55;;;;;;;11.02;1.42;;;;;;;21.56;38.37;100429.22;16112375;19;129175;-42
2023/03/22 18:49:17;;;;;;;7.47;1.25;;;;;;;21.64;38.13;100420.34;16107471;19;130607;-41
2023/03/22 18:54:39;;;;;;;17.98;1.45;;;;;;;21.65;37.85;100408.91;16110799;19;133417;-41
2023/03/22 19:00:06;;;;;;;7.13;1.48;;;;;;;21.61;38.14;100410.56;16112646;19;129291;-40
2023/03/22 19:05:28;;;;;;;8.27;1.52;;;;;;;21.53;37.84;100397.22;16110621;19;130549;-43
2023/03/22 19:10:49;;;;;;;6.25;1.20;;;;;;;21.41;38.47;100403.06;16112448;19;129942;-40
2023/03/22 19:16:14;;;;;;;10.70;1.52;;;;;;;21.31;38.34;100405.81;16109189;19;129397;-41
2023/03/22 19:21:36;;;;;;;8.00;1.27;;;;;;;21.18;38.65;100401.66;16106810;19;131212;-40
2023/03/22 19:27:00;;;;;;;8.70;1.52;;;;;;;21.06;38.89;100394.41;16107463;19;131666;-41
2023/03/22 19:32:38;;;;;;;17.25;1.42;;;;;;;20.93;38.96;100382.97;16106762;19;129658;-44
2023/03/22 19:38:05;;;;;;;14.85;1.65;;;;;;;20.83;39.28;100373.50;16111377;19;130211;-39
2023/03/22 19:43:27;;;;;;;31.38;2.20;;;;;;;20.76;39.11;100372.94;16125418;19;129475;-44
2023/03/22 19:48:49;;;;;;;8.70;1.33;;;;;;;20.66;39.12;100389.56;16111942;19;131160;-41
2023/03/22 19:54:11;;;;;;;8.07;1.48;;;;;;;20.57;39.06;100403.97;16119669;19;130506;-40
2023/03/22 19:59:39;;;;;;;10.93;1.17;;;;;;;20.50;39.40;100385.88;16121405;19;132917;-44
2023/03/22 20:05:00;;;;;;;4.80;1.27;;;;;;;20.45;39.77;100379.22;16115260;19;130585;-47
2023/03/22 20:10:32;;;;;;;8.52;1.40;;;;;;;20.56;39.36;100374.50;16121896;19;130041;-42
2023/03/22 20:15:54;;;;;;;11.00;1.52;;;;;;;20.78;39.11;100376.28;16121750;19;130148;-43
2023/03/22 20:21:16;;;;;;;13.13;1.08;;;;;;;21.03;39.13;100372.69;16122926;19;129615;-46
2023/03/22 20:26:39;;;;;;;4.30;0.90;;;;;;;21.27;38.48;100371.34;16118973;19;129630;-45
2023/03/22 20:32:01;;;;;;;7.05;1.15;;;;;;;21.46;38.68;100347.38;16118011;19;130171;-44
2023/03/22 20:37:23;;;;;;;14.95;1.23;;;;;;;21.56;38.44;100334.59;16118416;19;130073;-45
2023/03/22 20:42:45;;;;;;;3.58;1.10;;;;;;;21.56;38.32;100327.09;16120930;19;131128;-46
2023/03/22 20:48:07;;;;;;;6.60;1.27;;;;;;;21.55;38.58;100310.66;16120052;19;129914;-45
2023/03/22 20:53:29;;;;;;;4.13;0.90;;;;;;;21.52;38.66;100315.69;16120010;19;130534;-47
2023/03/22 20:58:53;;;;;;;5.53;1.42;;;;;;;21.54;38.46;100303.44;16117045;19;130182;-44
2023/03/22 21:04:15;;;;;;;4.13;1.20;;;;;;;21.54;38.49;100322.94;16122614;19;129565;-50
2023/03/22 21:09:37;;;;;;;12.18;1.38;;;;;;;21.56;38.62;100323.47;16119337;19;129641;-47
2023/03/22 21:14:59;;;;;;;7.50;1.35;;;;;;;21.53;38.60;100313.75;16119975;19;129361;-45
2023/03/22 21:20:22;;;;;;;5.35;1.08;;;;;;;21.50;38.63;100305.94;16120410;19;129600;-39
2023/03/22 21:25:57;;;;;;;8.48;1.10;;;;;;;21.43;38.74;100295.06;16119100;19;129954;-44
2023/03/22 21:31:20;;;;;;;7.15;1.00;;;;;;;21.34;38.68;100305.97;16115914;19;130660;-42
2023/03/22 21:36:42;;;;;;;9.98;1.20;;;;;;;21.22;38.92;100300.66;16119454;19;129537;-42
2023/03/22 21:42:04;;;;;;;3.78;0.98;;;;;;;21.14;39.05;100317.94;16116749;19;130792;-48
2023/03/22 21:47:28;;;;;;;11.00;1.08;;;;;;;21.07;39.27;100297.88;16117688;19;130958;-40
2023/03/22 21:52:51;;;;;;;8.18;1.40;;;;;;;20.98;39.16;100292.06;16118364;19;129577;-49
2023/03/22 21:58:14;;;;;;;4.82;1.00;;;;;;;20.88;38.90;100287.34;16117557;19;129687;-40
2023/03/22 22:03:37;;;;;;;5.90;1.40;;;;;;;20.81;38.85;100272.84;16113435;19;130945;-45
2023/03/22 22:08:59;;;;;;;9.02;1.33;;;;;;;20.75;39.42;100285.91;16115344;19;130851;-40
2023/03/22 22:14:21;;;;;;;9.45;1.20;;;;;;;20.67;39.24;100285.63;16116395;19;129757;-41
2023/03/22 22:19:43;;;;;;;8.50;1.23;;;;;;;20.58;38.86;100280.59;16113883;19;130247;-42
2023/03/22 22:25:06;;;;;;;4.10;1.10;;;;;;;20.50;39.34;100275.56;16112546;19;129486;-48
2023/03/22 22:30:28;;;;;;;2.28;1.00;;;;;;;20.44;39.25;100269.19;16113282;19;130560;-46
2023/03/22 22:35:50;;;;;;;5.60;1.02;;;;;;;20.38;39.29;100272.22;16111484;19;129419;-48
2023/03/22 22:41:13;;;;;;;5.75;1.15;;;;;;;20.31;39.35;100258.59;16116600;19;130448;-44
2023/03/22 22:46:36;;;;;;;11.82;1.20;;;;;;;20.25;39.07;100254.97;16115347;19;130377;-44
2023/03/22 22:51:57;;;;;;;5.75;1.10;;;;;;;20.20;39.36;100249.38;16114499;19;129830;-45
2023/03/22 22:57:19;;;;;;;3.63;1.10;;;;;;;20.16;39.02;100239.09;16110992;19;129666;-48
2023/03/22 23:02:42;;;;;;;4.93;0.90;;;;;;;20.12;39.38;100241.59;16113298;19;129925;-45
2023/03/22 23:08:06;;;;;;;3.83;1.00;;;;;;;20.07;39.06;100234.09;16107556;19;129959;-46
2023/03/22 23:13:28;;;;;;;2.97;0.70;;;;;;;20.04;39.24;100233.81;16115439;19;129736;-40
2023/03/22 23:18:57;;;;;;;4.20;0.90;;;;;;;19.99;39.26;100218.78;16124452;19;130189;-45
2023/03/22 23:24:19;;;;;;;3.42;1.00;;;;;;;19.95;39.09;100214.03;16125937;19;131400;-44
2023/03/22 23:29:41;;;;;;;2.63;0.88;;;;;;;19.92;39.48;100201.53;16121567;19;131726;-45
2023/03/22 23:35:04;;;;;;;1.63;1.00;;;;;;;19.88;39.16;100197.63;16121006;19;131142;-47
2023/03/22 23:40:27;;;;;;;2.72;0.88;;;;;;;19.86;39.35;100212.91;16119315;19;129325;-42
2023/03/22 23:45:49;;;;;;;2.78;0.90;;;;;;;19.82;39.42;100182.91;16106555;19;132127;-41
2023/03/22 23:51:14;;;;;;;2.33;0.95;;;;;;;19.80;39.37;100181.50;16102687;19;131022;-42
2023/03/22 23:56:36;;;;;;;3.83;0.85;;;;;;;19.76;38.92;100170.09;16105787;19;131538;-40
